sensor_id;sensor_type;location;lat;lon;timestamp;pressure;altitude;pressure_sealevel;temperature;humidity
50302;BME280;36550;50.472;19.744;2022-11-23T00:01:21;97056.63;;;1.89;84.89
50302;BME280;36550;50.472;19.744;2022-11-23T00:04:09;97052.84;;;1.85;84.83
50302;BME280;36550;50.472;19.744;2022-11-23T00:06:55;97049.58;;;1.87;84.80
50302;BME280;36550;50.472;19.744;2022-11-23T00:09:40;97051.54;;;1.85;84.69
50302;BME280;36550;50.472;19.744;2022-11-23T00:12:24;97040.80;;;1.88;84.88
50302;BME280;36550;50.472;19.744;2022-11-23T00:15:10;97027.47;;;1.91;85.00
50302;BME280;36550;50.472;19.744;2022-11-23T00:17:55;97032.34;;;1.90;84.83
50302;BME280;36550;50.472;19.744;2022-11-23T00:20:39;97033.74;;;1.86;84.74
50302;BME280;36550;50.472;19.744;2022-11-23T00:23:24;97032.77;;;1.80;84.52
50302;BME280;36550;50.472;19.744;2022-11-23T00:26:08;97029.47;;;1.76;84.38
50302;BME280;36550;50.472;19.744;2022-11-23T00:28:52;97032.06;;;1.76;84.47
50302;BME280;36550;50.472;19.744;2022-11-23T00:31:37;97033.47;;;1.78;84.56
50302;BME280;36550;50.472;19.744;2022-11-23T00:34:21;97039.84;;;1.69;84.37
50302;BME280;36550;50.472;19.744;2022-11-23T00:37:06;97034.88;;;1.61;84.43
50302;BME280;36550;50.472;19.744;2022-11-23T00:39:50;97036.08;;;1.58;84.61
50302;BME280;36550;50.472;19.744;2022-11-23T00:42:34;97038.66;;;1.58;84.56
50302;BME280;36550;50.472;19.744;2022-11-23T00:45:19;97034.28;;;1.59;84.58
50302;BME280;36550;50.472;19.744;2022-11-23T00:48:03;97044.73;;;1.61;84.58
50302;BME280;36550;50.472;19.744;2022-11-23T00:50:48;97042.94;;;1.55;84.56
50302;BME280;36550;50.472;19.744;2022-11-23T00:53:34;97041.75;;;1.51;84.54
50302;BME280;36550;50.472;19.744;2022-11-23T00:56:19;97044.84;;;1.44;84.66
50302;BME280;36550;50.472;19.744;2022-11-23T00:59:03;97040.16;;;1.37;84.62
50302;BME280;36550;50.472;19.744;2022-11-23T01:01:48;97042.85;;;1.32;84.76
50302;BME280;36550;50.472;19.744;2022-11-23T01:04:32;97040.38;;;1.28;84.90
50302;BME280;36550;50.472;19.744;2022-11-23T01:07:17;97038.58;;;1.29;85.04
50302;BME280;36550;50.472;19.744;2022-11-23T01:10:02;97037.19;;;1.20;85.24
50302;BME280;36550;50.472;19.744;2022-11-23T01:12:46;97045.53;;;1.08;85.26
50302;BME280;36550;50.472;19.744;2022-11-23T01:15:30;97037.19;;;1.06;85.35
50302;BME280;36550;50.472;19.744;2022-11-23T01:18:15;97045.31;;;1.10;85.39
50302;BME280;36550;50.472;19.744;2022-11-23T01:21:00;97037.27;;;1.09;85.32
50302;BME280;36550;50.472;19.744;2022-11-23T01:23:44;97034.70;;;1.15;85.41
50302;BME280;36550;50.472;19.744;2022-11-23T01:26:29;97040.17;;;1.23;85.44
50302;BME280;36550;50.472;19.744;2022-11-23T01:29:13;97040.64;;;1.23;85.36
50302;BME280;36550;50.472;19.744;2022-11-23T01:31:57;97031.92;;;1.30;85.68
50302;BME280;36550;50.472;19.744;2022-11-23T01:34:41;97025.84;;;1.27;85.55
50302;BME280;36550;50.472;19.744;2022-11-23T01:37:26;97024.87;;;1.28;85.62
50302;BME280;36550;50.472;19.744;2022-11-23T01:40:11;97025.94;;;1.30;85.48
50302;BME280;36550;50.472;19.744;2022-11-23T01:42:59;97025.95;;;1.37;85.46
50302;BME280;36550;50.472;19.744;2022-11-23T01:49:03;97018.59;;;1.47;85.53
50302;BME280;36550;50.472;19.744;2022-11-23T01:51:51;97010.92;;;1.43;85.33
50302;BME280;36550;50.472;19.744;2022-11-23T01:54:42;97018.90;;;1.41;85.26
50302;BME280;36550;50.472;19.744;2022-11-23T01:57:36;97017.00;;;1.32;85.01
50302;BME280;36550;50.472;19.744;2022-11-23T02:00:24;97019.39;;;1.34;85.17
50302;BME280;36550;50.472;19.744;2022-11-23T02:03:08;97019.98;;;1.29;85.00
50302;BME280;36550;50.472;19.744;2022-11-23T02:05:55;97021.27;;;1.29;85.13
50302;BME280;36550;50.472;19.744;2022-11-23T02:08:45;97026.36;;;1.27;85.15
50302;BME280;36550;50.472;19.744;2022-11-23T02:11:30;97028.75;;;1.28;85.28
50302;BME280;36550;50.472;19.744;2022-11-23T02:14:14;97032.91;;;1.29;85.33
50302;BME280;36550;50.472;19.744;2022-11-23T02:16:59;97030.02;;;1.35;85.34
50302;BME280;36550;50.472;19.744;2022-11-23T02:19:56;97033.52;;;1.45;85.43
50302;BME280;36550;50.472;19.744;2022-11-23T02:29:05;97034.98;;;1.50;85.30
50302;BME280;36550;50.472;19.744;2022-11-23T02:31:47;97037.67;;;1.46;85.27
50302;BME280;36550;50.472;19.744;2022-11-23T02:34:32;97045.52;;;1.48;85.39
50302;BME280;36550;50.472;19.744;2022-11-23T02:37:17;97042.73;;;1.50;85.25
50302;BME280;36550;50.472;19.744;2022-11-23T02:40:03;97043.95;;;1.54;85.21
50302;BME280;36550;50.472;19.744;2022-11-23T02:42:51;97038.08;;;1.56;85.05
50302;BME280;36550;50.472;19.744;2022-11-23T02:45:54;97035.37;;;1.53;85.07
50302;BME280;36550;50.472;19.744;2022-11-23T02:48:36;97037.66;;;1.59;85.27
50302;BME280;36550;50.472;19.744;2022-11-23T02:51:21;97043.02;;;1.64;85.44
50302;BME280;36550;50.472;19.744;2022-11-23T02:54:06;97047.80;;;1.67;85.44
50302;BME280;36550;50.472;19.744;2022-11-23T02:56:50;97046.80;;;1.68;85.26
50302;BME280;36550;50.472;19.744;2022-11-23T02:59:35;97041.73;;;1.71;85.15
50302;BME280;36550;50.472;19.744;2022-11-23T03:02:19;97038.36;;;1.70;84.99
50302;BME280;36550;50.472;19.744;2022-11-23T03:05:04;97046.80;;;1.75;85.02
50302;BME280;36550;50.472;19.744;2022-11-23T03:07:48;97039.03;;;1.75;84.88
50302;BME280;36550;50.472;19.744;2022-11-23T03:10:33;97043.81;;;1.71;84.78
50302;BME280;36550;50.472;19.744;2022-11-23T03:13:18;97037.97;;;1.67;84.80
50302;BME280;36550;50.472;19.744;2022-11-23T03:16:02;97039.84;;;1.62;84.83
50302;BME280;36550;50.472;19.744;2022-11-23T03:18:46;97037.66;;;1.59;84.90
50302;BME280;36550;50.472;19.744;2022-11-23T03:21:31;97035.30;;;1.58;84.92
50302;BME280;36550;50.472;19.744;2022-11-23T03:24:15;97038.27;;;1.61;84.92
50302;BME280;36550;50.472;19.744;2022-11-23T03:27:00;97034.08;;;1.60;84.88
50302;BME280;36550;50.472;19.744;2022-11-23T03:29:45;97032.91;;;1.56;84.86
50302;BME280;36550;50.472;19.744;2022-11-23T03:32:29;97036.27;;;1.57;85.01
50302;BME280;36550;50.472;19.744;2022-11-23T03:35:13;97028.32;;;1.51;84.96
50302;BME280;36550;50.472;19.744;2022-11-23T03:37:58;97024.05;;;1.48;84.97
50302;BME280;36550;50.472;19.744;2022-11-23T03:40:45;97025.06;;;1.47;84.95
50302;BME280;36550;50.472;19.744;2022-11-23T03:43:30;97024.05;;;1.48;84.86
50302;BME280;36550;50.472;19.744;2022-11-23T03:46:14;97020.28;;;1.50;84.85
50302;BME280;36550;50.472;19.744;2022-11-23T03:48:58;97013.20;;;1.55;84.88
50302;BME280;36550;50.472;19.744;2022-11-23T03:51:43;97021.86;;;1.58;84.96
50302;BME280;36550;50.472;19.744;2022-11-23T03:54:27;97024.53;;;1.61;85.07
50302;BME280;36550;50.472;19.744;2022-11-23T03:57:11;97023.23;;;1.61;85.02
50302;BME280;36550;50.472;19.744;2022-11-23T03:59:56;97024.53;;;1.61;85.13
50302;BME280;36550;50.472;19.744;2022-11-23T04:02:41;97025.82;;;1.61;85.08
50302;BME280;36550;50.472;19.744;2022-11-23T04:05:26;97022.75;;;1.54;84.79
50302;BME280;36550;50.472;19.744;2022-11-23T04:08:10;97022.64;;;1.52;84.68
50302;BME280;36550;50.472;19.744;2022-11-23T04:10:56;97015.50;;;1.54;84.74
50302;BME280;36550;50.472;19.744;2022-11-23T04:13:40;97017.49;;;1.45;84.66
50302;BME280;36550;50.472;19.744;2022-11-23T04:16:25;97023.56;;;1.42;84.71
50302;BME280;36550;50.472;19.744;2022-11-23T04:19:09;97022.27;;;1.35;84.74
50302;BME280;36550;50.472;19.744;2022-11-23T04:21:53;97022.88;;;1.30;84.84
50302;BME280;36550;50.472;19.744;2022-11-23T04:24:37;97028.33;;;1.31;84.87
50302;BME280;36550;50.472;19.744;2022-11-23T04:27:22;97029.41;;;1.26;84.76
50302;BME280;36550;50.472;19.744;2022-11-23T04:30:07;97030.93;;;1.25;84.81
50302;BME280;36550;50.472;19.744;2022-11-23T04:32:52;97019.39;;;1.14;84.70
50302;BME280;36550;50.472;19.744;2022-11-23T04:35:36;97026.14;;;1.15;84.98
50302;BME280;36550;50.472;19.744;2022-11-23T04:38:21;97030.53;;;1.21;85.23
50302;BME280;36550;50.472;19.744;2022-11-23T04:41:05;97031.60;;;1.23;85.08
50302;BME280;36550;50.472;19.744;2022-11-23T04:43:49;97033.52;;;1.25;84.97
50302;BME280;36550;50.472;19.744;2022-11-23T04:46:34;97039.16;;;1.24;84.82
50302;BME280;36550;50.472;19.744;2022-11-23T04:49:18;97035.09;;;1.26;84.80
50302;BME280;36550;50.472;19.744;2022-11-23T04:52:04;97042.75;;;1.23;84.85
50302;BME280;36550;50.472;19.744;2022-11-23T04:54:48;97041.83;;;1.13;84.73
50302;BME280;36550;50.472;19.744;2022-11-23T04:57:33;97039.27;;;1.07;84.80
50302;BME280;36550;50.472;19.744;2022-11-23T05:00:17;97034.69;;;1.09;84.87
50302;BME280;36550;50.472;19.744;2022-11-23T05:03:01;97037.87;;;1.11;84.99
50302;BME280;36550;50.472;19.744;2022-11-23T05:05:46;97031.22;;;1.12;85.00
50302;BME280;36550;50.472;19.744;2022-11-23T05:08:30;97027.53;;;1.11;85.01
50302;BME280;36550;50.472;19.744;2022-11-23T05:11:14;97032.09;;;1.02;84.89
50302;BME280;36550;50.472;19.744;2022-11-23T05:13:58;97030.20;;;1.00;85.01
50302;BME280;36550;50.472;19.744;2022-11-23T05:16:43;97034.67;;;1.02;85.01
50302;BME280;36550;50.472;19.744;2022-11-23T05:19:27;97033.38;;;1.02;84.92
50302;BME280;36550;50.472;19.744;2022-11-23T05:22:11;97033.10;;;1.01;84.92
50302;BME280;36550;50.472;19.744;2022-11-23T05:24:56;97032.58;;;0.95;84.89
50302;BME280;36550;50.472;19.744;2022-11-23T05:27:40;97035.84;;;0.80;84.89
50302;BME280;36550;50.472;19.744;2022-11-23T05:30:25;97034.72;;;0.71;84.93
50302;BME280;36550;50.472;19.744;2022-11-23T05:33:09;97037.80;;;0.71;85.05
50302;BME280;36550;50.472;19.744;2022-11-23T05:35:54;97035.41;;;0.69;85.12
50302;BME280;36550;50.472;19.744;2022-11-23T05:38:39;97035.41;;;0.63;85.26
50302;BME280;36550;50.472;19.744;2022-11-23T05:41:23;97038.84;;;0.52;85.31
50302;BME280;36550;50.472;19.744;2022-11-23T05:44:08;97037.65;;;0.48;85.37
50302;BME280;36550;50.472;19.744;2022-11-23T05:46:52;97047.84;;;0.46;85.63
50302;BME280;36550;50.472;19.744;2022-11-23T05:49:37;97047.75;;;0.43;85.68
50302;BME280;36550;50.472;19.744;2022-11-23T05:52:24;97053.25;;;0.27;85.86
50302;BME280;36550;50.472;19.744;2022-11-23T05:55:08;97050.44;;;0.22;86.08
50302;BME280;36550;50.472;19.744;2022-11-23T05:57:53;97047.95;;;0.17;86.12
50302;BME280;36550;50.472;19.744;2022-11-23T06:00:37;97049.14;;;0.22;86.19
50302;BME280;36550;50.472;19.744;2022-11-23T06:03:22;97052.96;;;0.26;86.22
50302;BME280;36550;50.472;19.744;2022-11-23T06:06:06;97053.84;;;0.29;86.31
50302;BME280;36550;50.472;19.744;2022-11-23T06:08:51;97049.97;;;0.29;86.18
50302;BME280;36550;50.472;19.744;2022-11-23T06:11:36;97053.06;;;0.28;86.26
50302;BME280;36550;50.472;19.744;2022-11-23T06:14:21;97061.08;;;0.23;86.11
50302;BME280;36550;50.472;19.744;2022-11-23T06:17:05;97066.92;;;0.21;86.08
50302;BME280;36550;50.472;19.744;2022-11-23T06:19:50;97069.97;;;0.20;86.21
50302;BME280;36550;50.472;19.744;2022-11-23T06:22:34;97076.23;;;0.22;86.40
50302;BME280;36550;50.472;19.744;2022-11-23T06:25:19;97085.73;;;0.14;86.29
50302;BME280;36550;50.472;19.744;2022-11-23T06:28:03;97090.52;;;0.17;86.31
50302;BME280;36550;50.472;19.744;2022-11-23T06:30:47;97092.41;;;0.19;86.28
50302;BME280;36550;50.472;19.744;2022-11-23T06:33:32;97091.12;;;0.19;86.34
50302;BME280;36550;50.472;19.744;2022-11-23T06:36:17;97100.52;;;0.16;86.36
50302;BME280;36550;50.472;19.744;2022-11-23T06:39:01;97102.31;;;0.16;86.38
50302;BME280;36550;50.472;19.744;2022-11-23T06:41:45;97104.52;;;0.19;86.39
50302;BME280;36550;50.472;19.744;2022-11-23T06:44:30;97098.11;;;0.26;86.46
50302;BME280;36550;50.472;19.744;2022-11-23T06:47:14;97099.23;;;0.34;86.51
50302;BME280;36550;50.472;19.744;2022-11-23T06:49:58;97098.86;;;0.37;86.48
50302;BME280;36550;50.472;19.744;2022-11-23T06:52:43;97096.48;;;0.42;86.55
50302;BME280;36550;50.472;19.744;2022-11-23T06:55:27;97095.22;;;0.49;86.58
50302;BME280;36550;50.472;19.744;2022-11-23T06:58:11;97107.25;;;0.52;86.35
50302;BME280;36550;50.472;19.744;2022-11-23T07:01:00;97099.61;;;0.55;86.21
50302;BME280;36550;50.472;19.744;2022-11-23T07:03:46;97095.36;;;0.58;86.18
50302;BME280;36550;50.472;19.744;2022-11-23T07:06:30;97093.79;;;0.64;86.22
50302;BME280;36550;50.472;19.744;2022-11-23T07:09:14;97103.02;;;0.62;85.98
50302;BME280;36550;50.472;19.744;2022-11-23T07:11:59;97099.45;;;0.63;85.89
50302;BME280;36550;50.472;19.744;2022-11-23T07:14:43;97099.36;;;0.67;85.90
50302;BME280;36550;50.472;19.744;2022-11-23T07:17:27;97095.91;;;0.71;85.73
50302;BME280;36550;50.472;19.744;2022-11-23T07:20:12;97099.77;;;0.64;85.59
50302;BME280;36550;50.472;19.744;2022-11-23T07:23:04;97091.70;;;0.63;85.65
50302;BME280;36550;50.472;19.744;2022-11-23T07:25:49;97087.11;;;0.58;85.58
50302;BME280;36550;50.472;19.744;2022-11-23T07:28:34;97092.81;;;0.65;85.69
50302;BME280;36550;50.472;19.744;2022-11-23T07:31:18;97094.73;;;0.73;85.74
50302;BME280;36550;50.472;19.744;2022-11-23T07:34:02;97094.92;;;0.79;85.66
50302;BME280;36550;50.472;19.744;2022-11-23T07:36:47;97095.55;;;0.81;85.52
50302;BME280;36550;50.472;19.744;2022-11-23T07:39:32;97103.49;;;0.79;85.47
50302;BME280;36550;50.472;19.744;2022-11-23T07:42:16;97107.84;;;0.79;85.37
50302;BME280;36550;50.472;19.744;2022-11-23T07:45:01;97104.97;;;0.78;85.29
50302;BME280;36550;50.472;19.744;2022-11-23T07:47:46;97109.73;;;0.74;85.27
50302;BME280;36550;50.472;19.744;2022-11-23T07:50:31;97123.14;;;0.73;85.41
50302;BME280;36550;50.472;19.744;2022-11-23T07:53:15;97125.50;;;0.75;85.38
50302;BME280;36550;50.472;19.744;2022-11-23T07:56:00;97125.35;;;0.83;85.48
50302;BME280;36550;50.472;19.744;2022-11-23T07:58:44;97124.97;;;0.93;85.46
50302;BME280;36550;50.472;19.744;2022-11-23T08:01:28;97124.31;;;1.02;85.51
50302;BME280;36550;50.472;19.744;2022-11-23T08:04:14;97114.00;;;1.08;85.40
50302;BME280;36550;50.472;19.744;2022-11-23T08:06:58;97120.16;;;1.21;85.43
50302;BME280;36550;50.472;19.744;2022-11-23T08:09:43;97119.70;;;1.34;85.28
50302;BME280;36550;50.472;19.744;2022-11-23T08:12:27;97112.55;;;1.50;85.07
50302;BME280;36550;50.472;19.744;2022-11-23T08:15:12;97106.98;;;1.66;85.08
50302;BME280;36550;50.472;19.744;2022-11-23T08:17:57;97109.77;;;1.78;84.88
50302;BME280;36550;50.472;19.744;2022-11-23T08:20:42;97116.84;;;1.87;84.92
50302;BME280;36550;50.472;19.744;2022-11-23T08:23:26;97116.62;;;1.95;84.59
50302;BME280;36550;50.472;19.744;2022-11-23T08:26:11;97121.17;;;2.06;84.50
50302;BME280;36550;50.472;19.744;2022-11-23T08:28:55;97119.09;;;2.13;84.17
50302;BME280;36550;50.472;19.744;2022-11-23T08:31:40;97131.33;;;2.15;83.81
50302;BME280;36550;50.472;19.744;2022-11-23T08:34:25;97129.22;;;2.14;83.52
50302;BME280;36550;50.472;19.744;2022-11-23T08:37:10;97126.34;;;2.13;83.62
50302;BME280;36550;50.472;19.744;2022-11-23T08:39:54;97134.39;;;2.14;83.14
50302;BME280;36550;50.472;19.744;2022-11-23T08:42:39;97134.51;;;2.17;83.38
50302;BME280;36550;50.472;19.744;2022-11-23T08:45:24;97130.63;;;2.17;83.32
50302;BME280;36550;50.472;19.744;2022-11-23T08:48:09;97128.23;;;2.15;83.16
50302;BME280;36550;50.472;19.744;2022-11-23T08:50:56;97130.54;;;2.07;82.96
50302;BME280;36550;50.472;19.744;2022-11-23T08:53:41;97129.75;;;2.00;82.84
50302;BME280;36550;50.472;19.744;2022-11-23T08:56:26;97125.67;;;1.95;82.93
50302;BME280;36550;50.472;19.744;2022-11-23T08:59:11;97115.72;;;1.92;82.98
50302;BME280;36550;50.472;19.744;2022-11-23T09:01:55;97116.92;;;1.96;83.13
50302;BME280;36550;50.472;19.744;2022-11-23T09:04:40;97129.84;;;2.03;83.06
50302;BME280;36550;50.472;19.744;2022-11-23T09:07:24;97117.20;;;2.04;83.13
50302;BME280;36550;50.472;19.744;2022-11-23T09:10:09;97111.72;;;2.09;83.30
50302;BME280;36550;50.472;19.744;2022-11-23T09:12:53;97108.62;;;2.10;83.16
50302;BME280;36550;50.472;19.744;2022-11-23T09:15:38;97109.41;;;2.10;82.80
50302;BME280;36550;50.472;19.744;2022-11-23T09:18:22;97104.58;;;1.98;82.60
50302;BME280;36550;50.472;19.744;2022-11-23T09:21:07;97099.88;;;1.98;82.69
50302;BME280;36550;50.472;19.744;2022-11-23T09:23:51;97100.89;;;1.97;82.78
50302;BME280;36550;50.472;19.744;2022-11-23T09:26:36;97097.02;;;1.90;82.71
50302;BME280;36550;50.472;19.744;2022-11-23T09:29:21;97103.48;;;1.90;83.14
50302;BME280;36550;50.472;19.744;2022-11-23T09:32:05;97101.69;;;1.97;83.37
50302;BME280;36550;50.472;19.744;2022-11-23T09:34:50;97098.20;;;2.01;83.28
50302;BME280;36550;50.472;19.744;2022-11-23T09:37:34;97098.39;;;2.06;83.24
50302;BME280;36550;50.472;19.744;2022-11-23T09:40:19;97104.75;;;2.03;83.02
50302;BME280;36550;50.472;19.744;2022-11-23T09:52:49;97082.27;;;1.97;83.28
50302;BME280;36550;50.472;19.744;2022-11-23T09:55:41;97076.12;;;1.98;83.28
50302;BME280;36550;50.472;19.744;2022-11-23T09:58:34;97073.02;;;1.99;83.20
50302;BME280;36550;50.472;19.744;2022-11-23T10:01:20;97074.04;;;1.91;83.14
50302;BME280;36550;50.472;19.744;2022-11-23T10:04:06;97069.84;;;1.90;83.33
50302;BME280;36550;50.472;19.744;2022-11-23T10:06:56;97064.28;;;1.93;83.45
50302;BME280;36550;50.472;19.744;2022-11-23T10:10:18;97056.59;;;1.96;83.46
50302;BME280;36550;50.472;19.744;2022-11-23T10:16:27;97047.94;;;1.99;83.47
50302;BME280;36550;50.472;19.744;2022-11-23T10:25:45;97049.92;;;2.04;83.26
50302;BME280;36550;50.472;19.744;2022-11-23T10:28:30;97051.50;;;2.05;83.37
50302;BME280;36550;50.472;19.744;2022-11-23T10:31:18;97056.28;;;2.01;83.29
50302;BME280;36550;50.472;19.744;2022-11-23T10:34:12;97054.71;;;2.00;83.43
50302;BME280;36550;50.472;19.744;2022-11-23T10:36:57;97045.03;;;2.05;83.55
50302;BME280;36550;50.472;19.744;2022-11-23T10:39:42;97044.31;;;2.14;83.56
50302;BME280;36550;50.472;19.744;2022-11-23T10:42:32;97046.08;;;2.20;83.59
50302;BME280;36550;50.472;19.744;2022-11-23T10:45:24;97043.80;;;2.21;83.55
50302;BME280;36550;50.472;19.744;2022-11-23T10:48:10;97038.63;;;2.21;83.26
50302;BME280;36550;50.472;19.744;2022-11-23T10:50:59;97028.06;;;2.22;83.39
50302;BME280;36550;50.472;19.744;2022-11-23T10:54:01;97028.64;;;2.31;83.36
50302;BME280;36550;50.472;19.744;2022-11-23T10:56:49;97028.64;;;2.31;83.17
50302;BME280;36550;50.472;19.744;2022-11-23T10:59:36;97020.48;;;2.27;83.20
50302;BME280;36550;50.472;19.744;2022-11-23T11:02:21;97028.47;;;2.19;83.10
50302;BME280;36550;50.472;19.744;2022-11-23T11:08:20;97019.06;;;2.09;83.16
50302;BME280;36550;50.472;19.744;2022-11-23T11:11:20;97019.46;;;2.06;83.35
50302;BME280;36550;50.472;19.744;2022-11-23T11:14:19;97021.73;;;2.05;83.50
50302;BME280;36550;50.472;19.744;2022-11-23T11:17:09;97013.18;;;2.11;83.62
50302;BME280;36550;50.472;19.744;2022-11-23T11:19:57;97013.77;;;2.13;83.50
50302;BME280;36550;50.472;19.744;2022-11-23T11:22:41;97008.14;;;2.23;83.54
50302;BME280;36550;50.472;19.744;2022-11-23T11:25:34;97009.30;;;2.34;83.50
50302;BME280;36550;50.472;19.744;2022-11-23T11:31:40;97014.94;;;2.40;82.99
50302;BME280;36550;50.472;19.744;2022-11-23T11:34:34;97010.84;;;2.41;82.97
50302;BME280;36550;50.472;19.744;2022-11-23T11:37:36;97013.62;;;2.46;83.03
50302;BME280;36550;50.472;19.744;2022-11-23T11:40:32;97013.62;;;2.46;82.85
50302;BME280;36550;50.472;19.744;2022-11-23T11:43:20;97011.23;;;2.45;82.99
50302;BME280;36550;50.472;19.744;2022-11-23T11:46:26;97008.03;;;2.49;83.00
50302;BME280;36550;50.472;19.744;2022-11-23T11:49:24;97007.83;;;2.51;82.91
50302;BME280;36550;50.472;19.744;2022-11-23T11:52:17;97009.52;;;2.55;82.81
50302;BME280;36550;50.472;19.744;2022-11-23T11:58:03;97011.92;;;2.49;82.71
50302;BME280;36550;50.472;19.744;2022-11-23T12:00:59;97016.46;;;2.38;82.54
50302;BME280;36550;50.472;19.744;2022-11-23T12:03:58;97013.30;;;2.29;82.66
50302;BME280;36550;50.472;19.744;2022-11-23T12:06:52;97018.30;;;2.24;82.83
50302;BME280;36550;50.472;19.744;2022-11-23T12:09:41;97017.22;;;2.16;82.87
50302;BME280;36550;50.472;19.744;2022-11-23T12:12:30;97017.45;;;2.15;83.06
50302;BME280;36550;50.472;19.744;2022-11-23T12:15:20;97013.66;;;2.10;83.06
50302;BME280;36550;50.472;19.744;2022-11-23T12:24:52;97024.52;;;2.10;83.33
50302;BME280;36550;50.472;19.744;2022-11-23T12:41:26;97022.20;;;2.18;83.58
50302;BME280;36550;50.472;19.744;2022-11-23T12:47:54;97023.48;;;2.18;83.51
50302;BME280;36550;50.472;19.744;2022-11-23T12:50:46;97021.41;;;2.17;83.53
50302;BME280;36550;50.472;19.744;2022-11-23T12:53:58;97022.78;;;2.20;83.62
50302;BME280;36550;50.472;19.744;2022-11-23T12:57:02;97028.66;;;2.18;83.58
50302;BME280;36550;50.472;19.744;2022-11-23T13:00:17;97034.73;;;2.21;83.73
50302;BME280;36550;50.472;19.744;2022-11-23T13:03:12;97037.52;;;2.19;83.68
50302;BME280;36550;50.472;19.744;2022-11-23T13:09:23;97037.56;;;2.13;83.63
50302;BME280;36550;50.472;19.744;2022-11-23T13:12:19;97042.44;;;2.11;83.78
50302;BME280;36550;50.472;19.744;2022-11-23T13:18:58;97042.13;;;2.10;83.62
50302;BME280;36550;50.472;19.744;2022-11-23T13:21:57;97041.06;;;2.09;83.72
50302;BME280;36550;50.472;19.744;2022-11-23T13:28:29;97047.42;;;2.06;83.73
50302;BME280;36550;50.472;19.744;2022-11-23T13:34:41;97050.05;;;2.00;83.62
50302;BME280;36550;50.472;19.744;2022-11-23T13:37:00;97048.95;;;1.91;83.59
50302;BME280;36550;50.472;19.744;2022-11-23T13:42:40;97032.88;;;1.76;83.88
50302;BME280;36550;50.472;19.744;2022-11-23T13:45:32;97033.04;;;1.81;83.99
50302;BME280;36550;50.472;19.744;2022-11-23T13:48:19;97038.25;;;1.75;84.01
50302;BME280;36550;50.472;19.744;2022-11-23T13:51:03;97045.42;;;1.72;84.16
50302;BME280;36550;50.472;19.744;2022-11-23T13:53:59;97040.52;;;1.73;84.25
50302;BME280;36550;50.472;19.744;2022-11-23T13:56:55;97042.32;;;1.80;84.31
50302;BME280;36550;50.472;19.744;2022-11-23T13:59:40;97037.15;;;1.80;84.15
50302;BME280;36550;50.472;19.744;2022-11-23T14:02:27;97034.84;;;1.81;84.27
50302;BME280;36550;50.472;19.744;2022-11-23T14:08:36;97036.16;;;1.67;84.30
50302;BME280;36550;50.472;19.744;2022-11-23T14:11:22;97032.20;;;1.58;84.47
50302;BME280;36550;50.472;19.744;2022-11-23T14:14:14;97032.48;;;1.59;84.66
50302;BME280;36550;50.472;19.744;2022-11-23T14:23:35;97050.48;;;1.50;85.03
50302;BME280;36550;50.472;19.744;2022-11-23T14:30:15;97041.86;;;1.47;85.10
50302;BME280;36550;50.472;19.744;2022-11-23T14:36:19;97040.65;;;1.43;85.21
50302;BME280;36550;50.472;19.744;2022-11-23T14:39:26;97039.67;;;1.50;85.22
50302;BME280;36550;50.472;19.744;2022-11-23T14:42:28;97044.73;;;1.54;85.16
50302;BME280;36550;50.472;19.744;2022-11-23T14:45:14;97043.44;;;1.54;85.17
50302;BME280;36550;50.472;19.744;2022-11-23T14:48:21;97045.72;;;1.53;85.16
50302;BME280;36550;50.472;19.744;2022-11-23T14:51:21;97047.03;;;1.47;85.16
50302;BME280;36550;50.472;19.744;2022-11-23T14:54:08;97056.66;;;1.35;85.54
50302;BME280;36550;50.472;19.744;2022-11-23T14:56:53;97059.77;;;1.28;85.60
50302;BME280;36550;50.472;19.744;2022-11-23T14:59:40;97051.38;;;1.26;85.81
50302;BME280;36550;50.472;19.744;2022-11-23T15:02:36;97060.14;;;1.25;85.86
50302;BME280;36550;50.472;19.744;2022-11-23T15:05:25;97060.55;;;1.29;85.89
50302;BME280;36550;50.472;19.744;2022-11-23T15:08:29;97058.87;;;1.32;85.85
50302;BME280;36550;50.472;19.744;2022-11-23T15:11:22;97059.16;;;1.40;85.87
50302;BME280;36550;50.472;19.744;2022-11-23T15:14:20;97055.67;;;1.37;85.81
50302;BME280;36550;50.472;19.744;2022-11-23T15:17:19;97057.47;;;1.36;85.83
50302;BME280;36550;50.472;19.744;2022-11-23T15:20:03;97055.56;;;1.41;85.85
50302;BME280;36550;50.472;19.744;2022-11-23T15:22:48;97059.14;;;1.46;85.81
50302;BME280;36550;50.472;19.744;2022-11-23T15:25:33;97060.13;;;1.52;85.77
50302;BME280;36550;50.472;19.744;2022-11-23T15:28:18;97061.42;;;1.52;85.65
50302;BME280;36550;50.472;19.744;2022-11-23T15:31:18;97070.98;;;1.58;85.72
50302;BME280;36550;50.472;19.744;2022-11-23T15:34:15;97072.17;;;1.62;85.74
50302;BME280;36550;50.472;19.744;2022-11-23T15:37:00;97074.17;;;1.60;85.61
50302;BME280;36550;50.472;19.744;2022-11-23T15:39:45;97075.86;;;1.64;85.59
50302;BME280;36550;50.472;19.744;2022-11-23T15:42:30;97078.05;;;1.67;85.58
50302;BME280;36550;50.472;19.744;2022-11-23T15:48:30;97068.91;;;1.58;85.51
50302;BME280;36550;50.472;19.744;2022-11-23T15:51:27;97071.57;;;1.53;85.54
50302;BME280;36550;50.472;19.744;2022-11-23T15:54:22;97068.69;;;1.59;85.65
50302;BME280;36550;50.472;19.744;2022-11-23T15:57:12;97072.77;;;1.64;85.68
50302;BME280;36550;50.472;19.744;2022-11-23T15:59:59;97072.27;;;1.71;85.88
50302;BME280;36550;50.472;19.744;2022-11-23T16:02:45;97074.26;;;1.69;85.64
50302;BME280;36550;50.472;19.744;2022-11-23T16:05:29;97080.53;;;1.71;85.62
50302;BME280;36550;50.472;19.744;2022-11-23T16:08:24;97087.48;;;1.77;85.57
50302;BME280;36550;50.472;19.744;2022-11-23T16:17:03;97090.36;;;1.65;85.49
50302;BME280;36550;50.472;19.744;2022-11-23T16:19:51;97089.06;;;1.65;85.58
50302;BME280;36550;50.472;19.744;2022-11-23T16:22:38;97090.56;;;1.70;85.60
50302;BME280;36550;50.472;19.744;2022-11-23T16:28:26;97093.56;;;1.60;85.61
50302;BME280;36550;50.472;19.744;2022-11-23T16:31:27;97094.27;;;1.58;85.71
50302;BME280;36550;50.472;19.744;2022-11-23T16:34:17;97090.27;;;1.56;85.74